Time;durP1;ratioP1;P1;durP2;ratioP2;P2;SDS_P1;SDS_P2;PMS_P1;PMS_P2;Temp;Humidity;BMP_temperature;BMP_pressure;BME280_temperature;BME280_humidity;BME280_pressure;Samples;Min_cycle;Max_cycle;Signal;HPM_P1;HPM_P2
2022/09/03 00:00:35;;;;;;;1.47;0.70;;;13.90;84.10;;;;;;5037905;28;20238;-92
2022/09/03 00:03:08;;;;;;;2.03;0.70;;;13.90;83.80;;;;;;5030747;28;20310;-94
2022/09/03 00:05:40;;;;;;;1.00;0.60;;;13.70;84.40;;;;;;5029624;28;20597;-93
2022/09/03 00:08:13;;;;;;;1.70;0.80;;;13.80;84.70;;;;;;5031251;28;20235;-94
2022/09/03 00:10:46;;;;;;;1.57;0.80;;;13.70;84.80;;;;;;5043260;28;20227;-93
2022/09/03 00:13:17;;;;;;;2.20;1.00;;;13.70;85.50;;;;;;5036039;28;20228;-94
2022/09/03 00:15:44;;;;;;;2.40;0.83;;;13.70;85.70;;;;;;5029728;28;20227;-92
2022/09/03 00:18:15;;;;;;;1.00;0.60;;;13.70;85.70;;;;;;5009497;28;20243;-91
2022/09/03 00:20:47;;;;;;;1.30;0.70;;;13.60;86.10;;;;;;5006588;28;20291;-91
2022/09/03 00:23:20;;;;;;;0.90;0.60;;;13.60;86.30;;;;;;5032373;28;20236;-91
2022/09/03 00:25:52;;;;;;;2.00;0.70;;;13.60;87.00;;;;;;5021039;28;20224;-92
2022/09/03 00:28:24;;;;;;;3.00;0.70;;;13.60;87.10;;;;;;5052867;28;20226;-93
2022/09/03 00:30:56;;;;;;;1.10;0.80;;;13.60;87.40;;;;;;5027254;28;20236;-91
2022/09/03 00:33:27;;;;;;;1.57;0.80;;;13.50;87.60;;;;;;5024712;28;20641;-91
2022/09/03 00:36:04;;;;;;;1.60;0.90;;;13.50;87.90;;;;;;5013088;28;20233;-90
2022/09/03 00:38:33;;;;;;;0.90;0.77;;;13.40;88.20;;;;;;5022495;28;20671;-91
2022/09/03 00:41:09;;;;;;;2.20;0.70;;;13.40;88.30;;;;;;5021412;28;20232;-91
2022/09/03 00:43:53;;;;;;;1.20;0.70;;;13.40;88.90;;;;;;5024560;28;20231;-91
2022/09/03 00:46:29;;;;;;;1.03;0.83;;;13.30;89.50;;;;;;5028192;28;21852;-91
2022/09/03 00:49:13;;;;;;;2.00;0.97;;;13.30;89.50;;;;;;5034526;28;20216;-91
2022/09/03 00:51:50;;;;;;;0.70;0.70;;;13.30;90.00;;;;;;5035576;28;20218;-92
2022/09/03 00:54:24;;;;;;;1.80;0.70;;;13.20;90.40;;;;;;5034207;28;20227;-92
2022/09/03 00:56:58;;;;;;;2.40;0.60;;;13.30;90.10;;;;;;5035097;28;20747;-91
2022/09/03 00:59:34;;;;;;;1.17;0.80;;;13.30;90.10;;;;;;5024779;28;20320;-90
2022/09/03 01:02:11;;;;;;;0.97;0.80;;;13.20;90.30;;;;;;5029695;28;20231;-90
2022/09/03 01:04:52;;;;;;;0.80;0.70;;;13.30;90.50;;;;;;5028300;28;20910;-88
2022/09/03 01:07:31;;;;;;;0.97;0.87;;;13.20;90.60;;;;;;5030242;28;20227;-90
2022/09/03 01:10:09;;;;;;;3.03;0.80;;;13.10;90.60;;;;;;5029844;28;20234;-91
2022/09/03 01:12:52;;;;;;;2.07;0.90;;;13.10;90.80;;;;;;5034795;28;20219;-91
2022/09/03 01:15:27;;;;;;;1.33;0.80;;;13.10;90.70;;;;;;5032378;28;20228;-92
2022/09/03 01:18:11;;;;;;;2.30;0.70;;;13.10;90.90;;;;;;5033627;28;20325;-89
2022/09/03 01:20:55;;;;;;;1.10;1.00;;;13.00;91.40;;;;;;5034063;28;20506;-91
2022/09/03 01:23:48;;;;;;;1.37;0.73;;;13.00;91.30;;;;;;5008143;28;20286;-91
2022/09/03 01:26:35;;;;;;;1.83;0.87;;;13.00;91.70;;;;;;5023603;28;20232;-91
2022/09/03 01:29:17;;;;;;;1.73;0.97;;;13.00;91.70;;;;;;5041454;28;20255;-91
2022/09/03 01:31:56;;;;;;;1.30;0.80;;;12.90;91.50;;;;;;5032966;28;20227;-91
2022/09/03 01:34:34;;;;;;;2.57;0.97;;;12.90;91.70;;;;;;5009640;28;20214;-90
2022/09/03 01:37:11;;;;;;;1.20;0.80;;;12.90;91.90;;;;;;5013015;28;21048;-91
2022/09/03 01:39:51;;;;;;;1.73;0.80;;;12.90;91.90;;;;;;5025073;28;20251;-91
2022/09/03 01:42:29;;;;;;;2.40;1.10;;;12.80;91.90;;;;;;5036343;28;20864;-91
2022/09/03 01:45:18;;;;;;;2.03;0.83;;;12.80;92.10;;;;;;5036854;28;20226;-91
2022/09/03 01:47:56;;;;;;;2.23;1.10;;;12.80;92.20;;;;;;5040560;28;20245;-92
2022/09/03 01:50:38;;;;;;;1.57;0.90;;;12.80;92.20;;;;;;5016928;28;20238;-91
2022/09/03 01:53:10;;;;;;;3.00;0.90;;;12.70;92.50;;;;;;5012085;28;20343;-91
2022/09/03 01:55:47;;;;;;;2.53;0.80;;;12.70;92.40;;;;;;5017414;28;20223;-91
2022/09/03 01:58:19;;;;;;;1.40;0.80;;;12.70;92.60;;;;;;5023515;28;20330;-91
2022/09/03 02:00:55;;;;;;;1.93;0.80;;;12.60;92.60;;;;;;5022602;28;20285;-91
2022/09/03 02:03:24;;;;;;;2.40;1.00;;;12.60;92.70;;;;;;5033481;28;20229;-91
2022/09/03 02:05:52;;;;;;;1.40;1.00;;;12.60;92.70;;;;;;5029323;28;20234;-91
2022/09/03 02:08:19;;;;;;;1.50;0.97;;;12.60;92.80;;;;;;5029289;28;20227;-91
2022/09/03 02:10:49;;;;;;;1.57;0.90;;;12.50;93.00;;;;;;5031653;28;20240;-90
2022/09/03 02:13:21;;;;;;;1.33;0.87;;;12.50;93.20;;;;;;5027719;28;20237;-91
2022/09/03 02:15:52;;;;;;;4.03;1.20;;;12.60;93.40;;;;;;5018427;28;20248;-91
2022/09/03 02:18:24;;;;;;;1.10;0.80;;;12.60;93.40;;;;;;5035028;28;20224;-91
2022/09/03 02:20:54;;;;;;;2.33;1.20;;;12.60;93.40;;;;;;5037655;28;20253;-91
2022/09/03 02:23:22;;;;;;;1.23;0.87;;;12.60;93.50;;;;;;5035106;28;20298;-92
2022/09/03 02:25:52;;;;;;;1.40;1.00;;;12.60;93.50;;;;;;5033732;28;20238;-90
2022/09/03 02:28:19;;;;;;;2.33;0.80;;;12.60;93.70;;;;;;5036072;28;20220;-94
2022/09/03 02:30:46;;;;;;;1.20;0.80;;;12.60;93.50;;;;;;5035431;28;20265;-91
2022/09/03 02:33:15;;;;;;;1.27;0.70;;;12.60;93.60;;;;;;5049210;28;20216;-92
2022/09/03 02:35:42;;;;;;;1.80;0.87;;;12.60;93.70;;;;;;5025033;28;20343;-92
2022/09/03 02:38:11;;;;;;;3.07;0.87;;;12.60;93.70;;;;;;5037760;28;20207;-92
2022/09/03 02:40:38;;;;;;;1.87;0.80;;;12.60;93.80;;;;;;5025486;28;20210;-92
2022/09/03 02:43:08;;;;;;;2.43;1.10;;;12.60;93.70;;;;;;5022827;28;20226;-92
2022/09/03 02:45:40;;;;;;;1.97;1.20;;;12.60;93.80;;;;;;5021536;28;20207;-92
2022/09/03 02:48:10;;;;;;;2.00;1.00;;;12.50;93.70;;;;;;5032987;28;20217;-91
2022/09/03 02:50:42;;;;;;;2.20;0.70;;;12.50;94.00;;;;;;5043078;28;20288;-92
2022/09/03 02:53:09;;;;;;;0.90;0.77;;;12.50;94.00;;;;;;5041208;28;20223;-91
2022/09/03 02:55:36;;;;;;;1.50;1.10;;;12.40;93.90;;;;;;5037550;28;20260;-91
2022/09/03 02:58:04;;;;;;;3.40;1.10;;;12.40;93.90;;;;;;5041313;28;20287;-91
2022/09/03 03:00:31;;;;;;;1.70;0.90;;;12.40;93.90;;;;;;5035819;28;20260;-92
2022/09/03 03:02:58;;;;;;;0.80;0.70;;;12.30;93.90;;;;;;5016378;28;20222;-91
2022/09/03 03:05:30;;;;;;;2.67;1.00;;;12.30;94.10;;;;;;5028608;28;20244;-91
2022/09/03 03:08:00;;;;;;;1.63;0.80;;;12.20;94.30;;;;;;5017850;28;20325;-93
2022/09/03 03:10:27;;;;;;;3.57;1.20;;;12.20;94.40;;;;;;5036017;28;20251;-93
2022/09/03 03:12:53;;;;;;;2.50;0.83;;;12.20;94.40;;;;;;5028901;28;20298;-91
2022/09/03 03:15:20;;;;;;;1.03;0.93;;;12.10;94.40;;;;;;5028712;28;20235;-91
2022/09/03 03:17:49;;;;;;;1.20;0.80;;;12.00;94.50;;;;;;5030839;28;20233;-91
2022/09/03 03:20:16;;;;;;;1.57;1.00;;;12.00;94.70;;;;;;5019305;28;20205;-93
2022/09/03 03:22:43;;;;;;;1.60;0.83;;;11.90;94.60;;;;;;5033583;28;20761;-92
2022/09/03 03:25:14;;;;;;;2.33;1.00;;;11.90;94.80;;;;;;5028174;28;20422;-92
2022/09/03 03:27:41;;;;;;;0.90;0.70;;;11.80;95.20;;;;;;5012446;28;20231;-92
2022/09/03 03:30:09;;;;;;;2.63;0.90;;;11.70;95.20;;;;;;5019956;28;20434;-91
2022/09/03 03:32:36;;;;;;;1.80;0.80;;;11.70;95.50;;;;;;5015305;28;20307;-91
2022/09/03 03:35:03;;;;;;;1.37;0.97;;;11.70;95.50;;;;;;5020862;28;20442;-91
2022/09/03 03:37:31;;;;;;;1.53;0.93;;;11.60;95.50;;;;;;5034272;28;20260;-91
2022/09/03 03:39:58;;;;;;;1.37;0.90;;;11.60;96.10;;;;;;5032524;28;20228;-92
2022/09/03 03:42:26;;;;;;;2.57;0.77;;;11.50;95.80;;;;;;5025373;28;20234;-91
2022/09/03 03:44:54;;;;;;;0.90;0.80;;;11.50;96.00;;;;;;5025233;28;20247;-94
2022/09/03 03:47:21;;;;;;;1.60;1.00;;;11.50;95.90;;;;;;5028767;28;20230;-93
2022/09/03 03:49:48;;;;;;;1.37;1.00;;;11.50;95.90;;;;;;5026223;28;20310;-92
2022/09/03 03:52:15;;;;;;;0.87;0.80;;;11.50;96.00;;;;;;5031640;28;20220;-92
2022/09/03 03:54:42;;;;;;;1.00;0.87;;;11.40;96.10;;;;;;5026708;28;20242;-92
2022/09/03 03:57:08;;;;;;;1.47;1.17;;;11.40;96.30;;;;;;5033302;28;21276;-92
2022/09/03 03:59:37;;;;;;;2.20;1.00;;;11.30;96.40;;;;;;5039558;28;20307;-92
2022/09/03 04:02:03;;;;;;;2.77;1.10;;;11.30;96.50;;;;;;5046560;28;20230;-92
2022/09/03 04:04:30;;;;;;;2.90;0.90;;;11.30;96.60;;;;;;5048159;28;20275;-92
2022/09/03 04:06:57;;;;;;;1.10;0.77;;;11.30;96.60;;;;;;5037180;28;20311;-92
2022/09/03 04:09:24;;;;;;;1.77;0.90;;;11.30;96.60;;;;;;5036930;28;20250;-92
2022/09/03 04:11:51;;;;;;;2.50;1.00;;;11.30;96.70;;;;;;5033613;28;20602;-92
2022/09/03 04:14:18;;;;;;;1.53;0.87;;;11.30;96.90;;;;;;5036220;28;20218;-93
2022/09/03 04:16:46;;;;;;;2.63;1.10;;;11.20;96.80;;;;;;5004687;28;20315;-92
2022/09/03 04:19:13;;;;;;;1.50;0.83;;;11.20;96.90;;;;;;5018744;28;20223;-92
2022/09/03 04:21:39;;;;;;;1.10;0.90;;;11.20;96.90;;;;;;5013477;28;20295;-91
2022/09/03 04:24:08;;;;;;;1.20;0.90;;;11.20;97.00;;;;;;5006708;28;20350;-91
2022/09/03 04:26:35;;;;;;;1.50;1.00;;;11.20;97.00;;;;;;5011139;28;20253;-90
2022/09/03 04:29:04;;;;;;;1.77;1.10;;;11.20;97.10;;;;;;5011032;28;20212;-91
2022/09/03 04:31:33;;;;;;;2.63;1.07;;;11.30;97.30;;;;;;5029277;28;20250;-91
2022/09/03 04:34:05;;;;;;;5.20;1.20;;;11.30;97.30;;;;;;5020138;28;20231;-92
2022/09/03 04:36:32;;;;;;;0.90;0.70;;;11.30;97.20;;;;;;5023944;28;20228;-90
2022/09/03 04:39:01;;;;;;;1.57;0.97;;;11.30;97.10;;;;;;5030464;28;20658;-91
2022/09/03 04:41:29;;;;;;;3.00;1.23;;;11.30;97.10;;;;;;5026756;28;20223;-90
2022/09/03 04:43:57;;;;;;;2.73;1.20;;;11.30;97.20;;;;;;5024646;28;20225;-90
2022/09/03 04:46:26;;;;;;;2.30;0.80;;;11.30;97.20;;;;;;5018028;28;20254;-91
2022/09/03 04:48:56;;;;;;;1.30;1.00;;;11.30;97.30;;;;;;5006571;28;20552;-91
2022/09/03 04:51:27;;;;;;;1.47;0.90;;;11.30;97.30;;;;;;5002295;28;20898;-91
2022/09/03 04:53:56;;;;;;;1.57;1.00;;;11.30;97.40;;;;;;5003938;28;20414;-90
2022/09/03 04:56:26;;;;;;;1.57;1.10;;;11.30;97.30;;;;;;4999080;28;20219;-91
2022/09/03 04:58:55;;;;;;;1.50;0.90;;;11.30;97.40;;;;;;5004775;28;20951;-91
2022/09/03 05:01:25;;;;;;;4.00;0.90;;;11.30;97.30;;;;;;5002886;28;20779;-91
2022/09/03 05:03:52;;;;;;;1.10;1.00;;;11.30;97.20;;;;;;5006367;28;20223;-92
2022/09/03 05:06:19;;;;;;;3.37;0.93;;;11.40;97.20;;;;;;5006611;28;20294;-91
2022/09/03 05:08:50;;;;;;;1.87;0.83;;;11.40;97.20;;;;;;5004124;28;20223;-91
2022/09/03 05:11:17;;;;;;;2.17;1.00;;;11.40;97.20;;;;;;5004365;28;20254;-95
2022/09/03 05:13:49;;;;;;;1.93;0.80;;;11.40;97.20;;;;;;5006596;28;20312;-93
2022/09/03 05:16:29;;;;;;;1.03;0.90;;;11.40;97.30;;;;;;5001246;28;20604;-92
2022/09/03 05:18:59;;;;;;;1.33;0.90;;;11.50;97.50;;;;;;5022042;28;20221;-88
2022/09/03 05:21:27;;;;;;;2.67;0.80;;;11.50;97.30;;;;;;5011352;28;20231;-87
2022/09/03 05:23:56;;;;;;;1.33;0.73;;;11.60;97.30;;;;;;5020822;28;20223;-91
2022/09/03 05:26:24;;;;;;;0.97;0.70;;;11.50;97.30;;;;;;5040247;28;20228;-92
2022/09/03 05:28:56;;;;;;;1.73;0.80;;;11.60;97.30;;;;;;5024795;28;20843;-92
2022/09/03 05:31:25;;;;;;;2.03;0.83;;;11.60;97.30;;;;;;5024327;28;20321;-91
2022/09/03 05:33:53;;;;;;;1.30;0.97;;;11.60;97.30;;;;;;5024745;28;20830;-92
2022/09/03 05:36:22;;;;;;;1.63;0.93;;;11.70;97.40;;;;;;5020756;28;20228;-91
2022/09/03 05:38:49;;;;;;;1.53;1.00;;;11.70;97.30;;;;;;5025473;28;20228;-92
2022/09/03 05:41:19;;;;;;;1.77;0.80;;;11.70;97.30;;;;;;5024654;28;20735;-92
2022/09/03 05:43:50;;;;;;;1.33;0.80;;;11.80;97.30;;;;;;5011059;28;20325;-90
2022/09/03 05:46:20;;;;;;;0.97;0.80;;;11.80;97.30;;;;;;5021650;23;20263;-91
2022/09/03 05:48:47;;;;;;;0.80;0.80;;;11.80;97.30;;;;;;4996276;28;20232;-92
2022/09/03 05:51:15;;;;;;;1.13;0.83;;;11.90;97.30;;;;;;4992920;28;20252;-92
2022/09/03 05:53:44;;;;;;;1.57;1.00;;;11.90;97.30;;;;;;5028268;28;20214;-92
2022/09/03 05:56:21;;;;;;;2.00;0.97;;;11.90;97.20;;;;;;5014967;28;20227;-92
2022/09/03 05:58:49;;;;;;;1.17;0.77;;;12.00;97.30;;;;;;5039871;28;20314;-87
2022/09/03 06:01:18;;;;;;;1.30;0.80;;;12.00;97.30;;;;;;5040496;28;20306;-87
2022/09/03 06:03:47;;;;;;;3.07;0.80;;;12.10;97.30;;;;;;5035755;28;20230;-86
2022/09/03 06:06:14;;;;;;;1.07;0.80;;;12.10;97.20;;;;;;5028977;28;20299;-87
2022/09/03 06:08:43;;;;;;;1.93;0.93;;;12.10;97.20;;;;;;5036117;28;20252;-87
2022/09/03 06:11:11;;;;;;;1.30;0.97;;;12.10;97.10;;;;;;5030587;28;20335;-87
2022/09/03 06:13:39;;;;;;;1.77;1.10;;;12.20;97.10;;;;;;5035893;28;20223;-87
2022/09/03 06:16:08;;;;;;;1.40;0.73;;;12.20;97.20;;;;;;5036811;28;20239;-88
2022/09/03 06:18:35;;;;;;;1.07;0.90;;;12.30;97.10;;;;;;5037781;28;20216;-87
2022/09/03 06:21:04;;;;;;;3.20;0.90;;;12.30;97.00;;;;;;5035820;28;20213;-89
2022/09/03 06:23:32;;;;;;;2.73;1.20;;;12.40;96.90;;;;;;5035722;28;20233;-87
2022/09/03 06:26:04;;;;;;;1.77;1.17;;;12.40;96.80;;;;;;5037355;28;20223;-88
2022/09/03 06:28:33;;;;;;;2.30;1.03;;;12.50;96.70;;;;;;5034628;28;20313;-88
2022/09/03 06:31:02;;;;;;;1.30;1.00;;;12.60;96.70;;;;;;5034891;28;20496;-87
2022/09/03 06:33:30;;;;;;;1.40;1.10;;;12.60;96.70;;;;;;5034720;28;20221;-87
2022/09/03 06:35:58;;;;;;;2.17;0.90;;;12.70;96.60;;;;;;5042338;28;20229;-87
2022/09/03 06:38:26;;;;;;;1.67;0.90;;;12.70;96.60;;;;;;5036081;28;20593;-88
2022/09/03 06:40:56;;;;;;;3.20;0.87;;;12.80;96.50;;;;;;5037672;28;20744;-87
2022/09/03 06:43:25;;;;;;;1.50;0.90;;;12.80;96.50;;;;;;5038921;28;20237;-87
2022/09/03 06:45:56;;;;;;;3.83;0.90;;;12.90;96.30;;;;;;5045112;28;20234;-86
2022/09/03 06:48:25;;;;;;;1.70;1.07;;;13.00;96.30;;;;;;5037462;28;20231;-87
2022/09/03 06:50:57;;;;;;;1.53;1.20;;;13.00;96.40;;;;;;5037129;28;20243;-88
2022/09/03 06:53:25;;;;;;;1.73;0.90;;;13.10;96.30;;;;;;5036171;28;20303;-87
2022/09/03 06:55:56;;;;;;;1.63;0.70;;;13.20;96.30;;;;;;5013113;28;20290;-86
2022/09/03 06:58:26;;;;;;;3.77;0.90;;;13.20;96.20;;;;;;5033374;28;20268;-86
2022/09/03 07:00:53;;;;;;;1.17;0.93;;;13.30;96.20;;;;;;5041937;28;20788;-93
2022/09/03 07:03:23;;;;;;;1.93;1.10;;;13.30;96.20;;;;;;5058627;28;20223;-90
2022/09/03 07:05:50;;;;;;;1.93;1.10;;;13.40;96.20;;;;;;5053355;28;20246;-93
2022/09/03 07:08:17;;;;;;;1.70;1.00;;;13.40;96.10;;;;;;5045730;28;20228;-94
2022/09/03 07:10:50;;;;;;;2.67;1.00;;;13.60;96.00;;;;;;5050120;28;20237;-96
2022/09/03 07:13:17;;;;;;;1.90;1.07;;;13.50;95.90;;;;;;5047248;28;20223;-93
2022/09/03 07:15:45;;;;;;;3.17;1.10;;;13.70;96.00;;;;;;5060038;28;20207;-93
2022/09/03 07:18:14;;;;;;;4.13;1.73;;;13.60;95.80;;;;;;5053242;28;20290;-95
2022/09/03 07:20:42;;;;;;;1.67;0.87;;;13.70;95.70;;;;;;5044156;28;20223;-93
2022/09/03 07:23:09;;;;;;;2.63;1.20;;;13.80;95.80;;;;;;5042607;28;20292;-93
2022/09/03 07:25:38;;;;;;;1.47;0.83;;;13.80;95.70;;;;;;5038683;28;20318;-95
2022/09/03 07:28:06;;;;;;;1.70;0.93;;;13.90;95.60;;;;;;5048235;28;20247;-94
2022/09/03 07:30:33;;;;;;;1.30;0.87;;;14.00;95.30;;;;;;5053312;28;20306;-94
2022/09/03 07:33:03;;;;;;;1.07;0.80;;;14.10;95.50;;;;;;5060723;28;21011;-96
2022/09/03 07:35:34;;;;;;;2.77;1.03;;;14.10;95.40;;;;;;5053544;28;20248;-96
2022/09/03 07:38:03;;;;;;;1.80;1.00;;;14.10;95.10;;;;;;5044444;28;20246;-96
2022/09/03 07:40:32;;;;;;;2.63;1.23;;;14.20;95.20;;;;;;5056924;28;20215;-95
2022/09/03 07:43:03;;;;;;;2.77;0.90;;;14.30;95.20;;;;;;5035788;28;20211;-92
2022/09/03 07:45:33;;;;;;;2.03;1.10;;;14.40;95.30;;;;;;5050754;28;20232;-96
2022/09/03 07:47:59;;;;;;;1.17;1.00;;;14.50;95.40;;;;;;5070647;23;20245;-78
2022/09/03 07:50:29;;;;;;;1.87;0.80;;;14.80;95.80;;;;;;5052428;28;20256;-79
2022/09/03 07:52:57;;;;;;;2.27;1.13;;;15.30;96.00;;;;;;5048255;28;20245;-81
2022/09/03 07:55:26;;;;;;;4.05;1.20;;;16.00;95.80;;;;;;5031765;28;25086;-80
2022/09/03 07:57:55;;;;;;;3.33;1.23;;;16.90;95.20;;;;;;5027615;28;20281;-81
2022/09/03 08:00:22;;;;;;;1.35;0.70;;;17.80;94.20;;;;;;5027692;28;20490;-77
2022/09/03 08:02:51;;;;;;;2.47;0.85;;;18.80;93.40;;;;;;5022849;28;20327;-81
2022/09/03 08:05:19;;;;;;;1.85;1.00;;;19.70;92.20;;;;;;5023927;28;20329;-78
2022/09/03 08:07:45;;;;;;;1.17;0.90;;;20.60;91.00;;;;;;5048017;28;20316;-78
2022/09/03 08:10:13;;;;;;;2.15;0.90;;;21.50;89.50;;;;;;5028588;28;20220;-78
2022/09/03 08:12:41;;;;;;;1.15;0.82;;;22.30;86.40;;;;;;5037232;28;20232;-79
2022/09/03 08:15:08;;;;;;;1.80;0.98;;;23.00;82.80;;;;;;5031302;28;21133;-79
2022/09/03 08:17:35;;;;;;;1.33;1.05;;;23.70;81.40;;;;;;5035747;28;20235;-78
2022/09/03 08:20:02;;;;;;;2.80;0.88;;;24.30;79.70;;;;;;5030196;28;20655;-79
2022/09/03 08:22:29;;;;;;;1.70;0.90;;;24.90;77.30;;;;;;4970740;28;20238;-79
2022/09/03 08:24:56;;;;;;;4.95;1.30;;;25.50;74.70;;;;;;4966357;28;20465;-79
2022/09/03 08:27:24;;;;;;;2.28;0.95;;;26.00;73.40;;;;;;4971911;28;20229;-79
2022/09/03 08:29:52;;;;;;;2.05;1.00;;;26.50;70.90;;;;;;4992352;28;20226;-79
2022/09/03 08:32:18;;;;;;;3.22;1.00;;;26.90;68.20;;;;;;4972400;28;20627;-79
2022/09/03 08:34:45;;;;;;;3.67;1.15;;;27.40;68.10;;;;;;4976317;28;21259;-79
2022/09/03 08:37:12;;;;;;;3.83;0.98;;;27.70;66.10;;;;;;4969481;28;20539;-80
2022/09/03 08:39:39;;;;;;;2.58;0.90;;;28.10;64.50;;;;;;4973553;28;20690;-79
2022/09/03 08:42:24;;;;;;;1.55;0.80;;;28.40;63.10;;;;;;4990637;28;20692;-79
2022/09/03 08:44:54;;;;;;;1.15;0.80;;;28.80;61.10;;;;;;4991140;28;20269;-78
2022/09/03 08:47:25;;;;;;;3.35;0.93;;;29.10;60.40;;;;;;4977838;28;20401;-79
2022/09/03 08:49:57;;;;;;;1.70;1.08;;;29.30;59.50;;;;;;4971666;28;20358;-79
2022/09/03 08:52:29;;;;;;;1.42;0.85;;;29.50;58.30;;;;;;4971619;28;20234;-79
2022/09/03 08:55:04;;;;;;;1.08;0.80;;;29.80;57.10;;;;;;4970271;28;20353;-79
2022/09/03 08:57:37;;;;;;;1.35;0.90;;;30.00;56.70;;;;;;4984456;28;20237;-79
2022/09/03 09:00:06;;;;;;;1.35;0.73;;;30.30;56.50;;;;;;4976534;28;20293;-79
2022/09/03 09:02:41;;;;;;;2.72;0.90;;;30.50;55.00;;;;;;4981247;28;20228;-79
2022/09/03 09:05:16;;;;;;;1.48;0.93;;;30.70;54.70;;;;;;4985238;28;20230;-80
2022/09/03 09:07:52;;;;;;;1.70;1.15;;;30.70;53.60;;;;;;4974961;28;20387;-79
2022/09/03 09:10:26;;;;;;;1.33;0.80;;;30.70;53.50;;;;;;4976127;28;20225;-79
2022/09/03 09:13:04;;;;;;;2.92;0.90;;;30.70;52.30;;;;;;4980202;28;20667;-79
2022/09/03 09:15:42;;;;;;;2.50;0.90;;;30.70;52.70;;;;;;4988850;28;20333;-79
2022/09/03 09:18:20;;;;;;;0.93;0.82;;;30.90;52.40;;;;;;4973862;28;20229;-80
2022/09/03 09:20:49;;;;;;;1.60;1.00;;;31.10;51.90;;;;;;4978210;28;20228;-80
2022/09/03 09:23:24;;;;;;;1.77;0.90;;;31.30;51.90;;;;;;4975692;28;20234;-80
2022/09/03 09:25:53;;;;;;;1.45;0.70;;;31.50;50.60;;;;;;4990853;28;20852;-80
2022/09/03 09:28:22;;;;;;;1.95;0.90;;;31.70;50.70;;;;;;4977130;28;20237;-80
2022/09/03 09:30:53;;;;;;;1.85;0.80;;;31.80;50.50;;;;;;4976856;28;20218;-80
2022/09/03 09:33:21;;;;;;;1.00;0.90;;;31.80;48.80;;;;;;4976651;28;20294;-80
2022/09/03 09:35:51;;;;;;;1.33;0.90;;;31.80;49.50;;;;;;4978743;28;20276;-80
2022/09/03 09:38:28;;;;;;;1.67;0.98;;;31.80;49.40;;;;;;4975852;28;20322;-79
2022/09/03 09:40:56;;;;;;;1.23;0.80;;;31.80;49.40;;;;;;5002566;28;20304;-80
2022/09/03 09:43:23;;;;;;;3.53;0.93;;;32.00;48.60;;;;;;4979402;28;20230;-80
2022/09/03 09:45:53;;;;;;;1.15;0.90;;;32.10;48.70;;;;;;4984053;28;20296;-80
2022/09/03 09:48:25;;;;;;;1.75;0.80;;;32.30;48.20;;;;;;4973852;28;20230;-79
2022/09/03 09:51:03;;;;;;;1.73;0.82;;;32.50;47.40;;;;;;4987480;28;20225;-80
2022/09/03 09:53:30;;;;;;;1.35;0.80;;;32.80;46.50;;;;;;4979334;28;20225;-80
2022/09/03 09:55:58;;;;;;;1.17;0.90;;;32.90;45.50;;;;;;4985316;28;20214;-80
2022/09/03 09:58:29;;;;;;;2.30;0.95;;;32.90;45.30;;;;;;4978673;28;20275;-80
2022/09/03 10:01:01;;;;;;;1.23;0.90;;;32.80;45.30;;;;;;4971952;28;20313;-80
2022/09/03 10:03:30;;;;;;;1.10;0.90;;;32.80;44.90;;;;;;4978437;28;20280;-80
2022/09/03 10:06:52;;;;;;;1.48;0.80;;;32.80;44.30;;;;;;4977338;28;20698;-80
2022/09/03 10:08:52;;;;;;;1.17;0.80;;;32.70;43.30;;;;;;4979789;28;20230;-80
2022/09/03 10:11:26;;;;;;;3.88;0.98;;;32.70;44.40;;;;;;4990741;28;20223;-80
2022/09/03 10:13:55;;;;;;;2.53;0.73;;;32.70;44.70;;;;;;4990558;28;20233;-80
2022/09/03 10:16:27;;;;;;;1.60;0.85;;;32.70;43.10;;;;;;4974490;28;20756;-80
2022/09/03 10:19:02;;;;;;;1.27;0.70;;;32.80;43.00;;;;;;4992150;28;20313;-80
2022/09/03 10:21:34;;;;;;;1.60;0.85;;;32.80;40.50;;;;;;4990598;28;20226;-80
2022/09/03 10:24:09;;;;;;;1.88;1.00;;;32.70;40.60;;;;;;4982199;28;20234;-79
2022/09/03 10:26:36;;;;;;;6.38;1.13;;;32.50;40.70;;;;;;4993021;28;20222;-80
2022/09/03 10:29:04;;;;;;;3.50;0.98;;;32.40;40.90;;;;;;4989126;28;20296;-80
2022/09/03 10:31:49;;;;;;;3.28;0.80;;;32.20;40.90;;;;;;5017314;28;20222;-80
2022/09/03 10:34:22;;;;;;;1.58;0.88;;;32.00;41.10;;;;;;4984703;28;20359;-80
2022/09/03 10:36:56;;;;;;;2.40;0.80;;;31.90;39.90;;;;;;4974821;28;20316;-80
2022/09/03 10:39:32;;;;;;;1.98;0.77;;;31.70;40.60;;;;;;4973959;28;20683;-80
2022/09/03 10:42:13;;;;;;;2.67;1.00;;;31.70;40.60;;;;;;4984826;28;20218;-80
2022/09/03 10:45:00;;;;;;;1.52;0.73;;;31.50;38.40;;;;;;4987018;28;20246;-80
2022/09/03 10:47:49;;;;;;;2.72;0.88;;;31.30;39.80;;;;;;4978828;28;20320;-80
2022/09/03 10:50:22;;;;;;;2.03;0.90;;;31.00;40.00;;;;;;4979076;28;20248;-80
2022/09/03 10:53:08;;;;;;;1.45;0.95;;;30.90;40.60;;;;;;4986577;28;20234;-80
2022/09/03 10:55:47;;;;;;;2.28;0.80;;;30.50;40.10;;;;;;4998084;28;20225;-80
2022/09/03 10:58:41;;;;;;;1.52;0.80;;;30.10;40.20;;;;;;4977813;28;20218;-80
2022/09/03 11:01:21;;;;;;;2.28;0.88;;;29.50;41.00;;;;;;4969955;28;20222;-80
2022/09/03 11:03:59;;;;;;;3.22;0.80;;;29.00;41.50;;;;;;4981994;28;20293;-80
2022/09/03 11:06:28;;;;;;;4.15;0.95;;;28.60;41.90;;;;;;5001196;28;20268;-79
2022/09/03 11:08:59;;;;;;;1.60;0.70;;;28.40;42.50;;;;;;4974248;28;20678;-80
2022/09/03 11:11:32;;;;;;;0.90;0.80;;;28.20;42.70;;;;;;4971559;28;20306;-80
2022/09/03 11:14:06;;;;;;;1.17;0.63;;;28.30;42.70;;;;;;4975513;28;20225;-80
2022/09/03 11:16:38;;;;;;;2.70;0.90;;;28.30;42.60;;;;;;4968474;28;20233;-80
2022/09/03 11:19:10;;;;;;;2.85;0.70;;;28.40;43.30;;;;;;4974579;28;20222;-80
2022/09/03 11:21:40;;;;;;;5.10;1.05;;;28.40;42.10;;;;;;4984171;28;20820;-80
2022/09/03 11:24:13;;;;;;;3.53;1.05;;;28.60;42.10;;;;;;4988732;28;20225;-80
2022/09/03 11:26:42;;;;;;;1.77;0.77;;;28.70;42.20;;;;;;4990593;28;20259;-80
2022/09/03 11:29:16;;;;;;;1.83;0.90;;;28.80;40.90;;;;;;4980396;28;20226;-80
2022/09/03 11:31:56;;;;;;;3.05;1.00;;;28.70;40.60;;;;;;4975573;28;20218;-80
2022/09/03 11:34:31;;;;;;;0.77;0.77;;;28.80;40.60;;;;;;4980690;28;20313;-80
2022/09/03 11:37:16;;;;;;;2.35;0.90;;;28.80;41.00;;;;;;4990505;28;20305;-79
2022/09/03 11:39:43;;;;;;;1.83;0.75;;;28.80;40.70;;;;;;4974223;28;20219;-79
2022/09/03 11:42:12;;;;;;;3.75;0.65;;;28.80;39.90;;;;;;4975289;28;21088;-79
2022/09/03 11:44:41;;;;;;;5.72;1.10;;;28.60;40.40;;;;;;4978671;28;20226;-79
2022/09/03 11:47:16;;;;;;;3.47;0.98;;;28.40;40.30;;;;;;4975838;28;20222;-80
2022/09/03 11:49:50;;;;;;;1.35;0.60;;;28.10;40.40;;;;;;4984181;28;20236;-79
2022/09/03 11:52:27;;;;;;;1.75;0.90;;;28.00;40.70;;;;;;4994008;28;20391;-80
2022/09/03 11:54:53;;;;;;;2.83;0.77;;;27.90;40.50;;;;;;4977648;28;20840;-79
2022/09/03 11:57:25;;;;;;;2.72;0.77;;;27.90;40.20;;;;;;4979339;28;20221;-80
2022/09/03 11:59:52;;;;;;;2.78;1.10;;;27.80;39.70;;;;;;4987248;28;20233;-79
2022/09/03 12:02:27;;;;;;;3.78;0.77;;;27.70;39.80;;;;;;4979326;28;20229;-79
2022/09/03 12:05:19;;;;;;;1.13;0.60;;;27.60;40.40;;;;;;4981197;28;20226;-79
2022/09/03 12:08:09;;;;;;;2.13;1.00;;;27.50;40.90;;;;;;4984239;28;20253;-80
2022/09/03 12:10:46;;;;;;;2.33;0.70;;;27.50;40.00;;;;;;4979881;28;20586;-78
2022/09/03 12:13:40;;;;;;;1.15;1.05;;;27.40;39.90;;;;;;4991115;28;20229;-78
2022/09/03 12:16:33;;;;;;;1.05;0.63;;;27.30;40.70;;;;;;4990798;28;20296;-79
2022/09/03 12:19:08;;;;;;;1.85;0.80;;;27.10;40.50;;;;;;4970104;28;20254;-78
2022/09/03 12:21:40;;;;;;;2.92;1.00;;;26.90;40.40;;;;;;4967768;28;20226;-77
2022/09/03 12:24:12;;;;;;;1.15;0.60;;;26.70;40.40;;;;;;4976501;28;20310;-77
2022/09/03 12:26:41;;;;;;;1.10;0.70;;;26.40;41.00;;;;;;4973510;28;22106;-78
2022/09/03 12:29:19;;;;;;;4.22;1.10;;;26.10;41.10;;;;;;4978774;28;20218;-77
2022/09/03 12:31:49;;;;;;;8.30;1.08;;;25.80;41.30;;;;;;4986687;28;20236;-77
2022/09/03 12:34:17;;;;;;;2.67;1.00;;;25.60;41.60;;;;;;4974274;28;20234;-77
2022/09/03 12:36:49;;;;;;;1.00;0.90;;;25.40;41.80;;;;;;4977547;28;21026;-78
2022/09/03 12:39:17;;;;;;;1.40;0.60;;;25.30;42.20;;;;;;4976585;28;20723;-78
2022/09/03 12:41:57;;;;;;;1.63;0.88;;;25.20;42.60;;;;;;4978911;28;20312;-78
2022/09/03 12:44:30;;;;;;;2.35;0.75;;;25.30;42.70;;;;;;4979499;28;20979;-78
2022/09/03 12:47:10;;;;;;;1.63;0.70;;;25.40;42.80;;;;;;4975922;28;20226;-78
2022/09/03 12:49:38;;;;;;;0.88;0.70;;;25.50;42.40;;;;;;4998987;28;20229;-78
2022/09/03 12:52:13;;;;;;;1.27;0.80;;;25.70;42.40;;;;;;4980655;28;20296;-78
2022/09/03 12:54:47;;;;;;;1.90;0.88;;;25.70;42.50;;;;;;4994798;28;20234;-77
2022/09/03 12:57:20;;;;;;;1.15;0.82;;;25.80;42.40;;;;;;4975200;28;20233;-77
2022/09/03 12:59:48;;;;;;;2.90;0.80;;;25.90;42.20;;;;;;4980849;28;20229;-78
2022/09/03 13:02:22;;;;;;;1.73;0.85;;;25.90;41.90;;;;;;4985984;28;20303;-78
2022/09/03 13:04:50;;;;;;;2.63;0.75;;;25.90;41.70;;;;;;4974007;28;20289;-78
2022/09/03 13:07:27;;;;;;;2.83;0.80;;;25.80;42.00;;;;;;4974147;28;20214;-78
2022/09/03 13:10:02;;;;;;;1.67;0.85;;;25.70;41.30;;;;;;4975034;28;20230;-77